Palomar Park, California
Current Conditions -  °F | °C
As of 6:47 PM on Friday 28 Nov 2014 (Local Time) from KSQL Reporting Station
Clear Clear  
Wind Chill: 57°   Ceiling: Unl
Heat Index: 57°   Visibility: 10mi
Dew Point: 48°   Wind: 3mph
Humidity: 72%   Direction: 210°SSW
Pressure: 29.89"   Gusts: NA
Location:  37.4497°N, 122.329°W
Report Text: KSQL 290247Z 21003KT 10SM SKC 14/09 A2989
Loading
Personal Weather Stations






























Interactive Weather Map New forecast layout! Learn more

10-Day Weather Forecast

Advertisements
Track Severe Weather on mobile